sensor_id;sensor_type;location;lat;lon;timestamp;temperature;humidity
29687;DHT22;16599;47.078;15.536;2023-02-01T00:01:08;-2.10;99.90
29687;DHT22;16599;47.078;15.536;2023-02-01T00:03:35;-2.10;99.90
29687;DHT22;16599;47.078;15.536;2023-02-01T00:06:02;-2.10;99.90
29687;DHT22;16599;47.078;15.536;2023-02-01T00:08:32;-2.10;99.90
29687;DHT22;16599;47.078;15.536;2023-02-01T00:11:07;-2.10;99.90
29687;DHT22;16599;47.078;15.536;2023-02-01T00:13:39;-2.10;99.90
29687;DHT22;16599;47.078;15.536;2023-02-01T00:16:10;-2.00;99.90
29687;DHT22;16599;47.078;15.536;2023-02-01T00:18:38;-2.00;99.90
29687;DHT22;16599;47.078;15.536;2023-02-01T00:21:05;-1.70;99.90
29687;DHT22;16599;47.078;15.536;2023-02-01T00:23:40;-1.70;99.90
29687;DHT22;16599;47.078;15.536;2023-02-01T00:26:12;-1.70;99.90
29687;DHT22;16599;47.078;15.536;2023-02-01T00:28:40;-1.60;99.90
29687;DHT22;16599;47.078;15.536;2023-02-01T00:31:07;-1.80;99.90
29687;DHT22;16599;47.078;15.536;2023-02-01T00:33:36;-1.60;99.90
29687;DHT22;16599;47.078;15.536;2023-02-01T00:36:06;-1.50;99.90
29687;DHT22;16599;47.078;15.536;2023-02-01T00:38:37;-1.30;99.90
29687;DHT22;16599;47.078;15.536;2023-02-01T00:41:15;-1.50;99.90
29687;DHT22;16599;47.078;15.536;2023-02-01T00:43:42;-1.40;99.90
29687;DHT22;16599;47.078;15.536;2023-02-01T00:46:11;-1.50;99.90
29687;DHT22;16599;47.078;15.536;2023-02-01T00:48:38;-1.50;99.90
29687;DHT22;16599;47.078;15.536;2023-02-01T00:51:09;-1.50;99.90
29687;DHT22;16599;47.078;15.536;2023-02-01T00:53:37;-1.40;99.90
29687;DHT22;16599;47.078;15.536;2023-02-01T00:56:05;-1.70;99.90
29687;DHT22;16599;47.078;15.536;2023-02-01T00:58:35;-1.80;99.90
29687;DHT22;16599;47.078;15.536;2023-02-01T01:01:05;-2.00;99.90
29687;DHT22;16599;47.078;15.536;2023-02-01T01:03:35;-1.90;99.90
29687;DHT22;16599;47.078;15.536;2023-02-01T01:06:04;-1.80;99.90
29687;DHT22;16599;47.078;15.536;2023-02-01T01:08:32;-1.80;99.90
29687;DHT22;16599;47.078;15.536;2023-02-01T01:11:03;-1.70;99.90
29687;DHT22;16599;47.078;15.536;2023-02-01T01:13:32;-1.80;99.90
29687;DHT22;16599;47.078;15.536;2023-02-01T01:16:01;-2.10;99.90
29687;DHT22;16599;47.078;15.536;2023-02-01T01:18:30;-1.90;99.90
29687;DHT22;16599;47.078;15.536;2023-02-01T01:20:57;-1.80;99.90
29687;DHT22;16599;47.078;15.536;2023-02-01T01:23:24;-1.80;99.90
29687;DHT22;16599;47.078;15.536;2023-02-01T01:25:51;-1.60;99.90
29687;DHT22;16599;47.078;15.536;2023-02-01T01:28:18;-1.70;99.90
29687;DHT22;16599;47.078;15.536;2023-02-01T01:30:45;-1.90;99.90
29687;DHT22;16599;47.078;15.536;2023-02-01T01:33:12;-1.80;99.90
29687;DHT22;16599;47.078;15.536;2023-02-01T01:35:39;-2.10;99.90
29687;DHT22;16599;47.078;15.536;2023-02-01T01:38:06;-2.00;99.90
29687;DHT22;16599;47.078;15.536;2023-02-01T01:40:33;-1.90;99.90
29687;DHT22;16599;47.078;15.536;2023-02-01T01:42:59;-1.70;99.90
29687;DHT22;16599;47.078;15.536;2023-02-01T01:45:34;-1.90;99.90
29687;DHT22;16599;47.078;15.536;2023-02-01T01:50:54;-1.60;99.90
29687;DHT22;16599;47.078;15.536;2023-02-01T01:53:27;-1.20;99.90
29687;DHT22;16599;47.078;15.536;2023-02-01T01:55:56;-0.90;99.90
29687;DHT22;16599;47.078;15.536;2023-02-01T01:58:28;-1.20;99.90
29687;DHT22;16599;47.078;15.536;2023-02-01T02:00:55;-1.30;99.90
29687;DHT22;16599;47.078;15.536;2023-02-01T02:03:27;-1.20;99.90
29687;DHT22;16599;47.078;15.536;2023-02-01T02:05:57;-1.40;99.90
29687;DHT22;16599;47.078;15.536;2023-02-01T02:08:26;-1.40;99.90
29687;DHT22;16599;47.078;15.536;2023-02-01T02:10:54;-1.50;99.90
29687;DHT22;16599;47.078;15.536;2023-02-01T02:13:41;-0.80;99.90
29687;DHT22;16599;47.078;15.536;2023-02-01T02:24:34;-1.90;99.90
29687;DHT22;16599;47.078;15.536;2023-02-01T02:27:25;-1.70;99.90
29687;DHT22;16599;47.078;15.536;2023-02-01T02:35:59;-1.70;99.90
29687;DHT22;16599;47.078;15.536;2023-02-01T02:41:36;-0.90;99.50
29687;DHT22;16599;47.078;15.536;2023-02-01T02:44:35;-1.20;99.90
29687;DHT22;16599;47.078;15.536;2023-02-01T02:47:35;-1.20;99.90
29687;DHT22;16599;47.078;15.536;2023-02-01T02:50:34;-1.30;99.90
29687;DHT22;16599;47.078;15.536;2023-02-01T02:56:20;-1.50;99.90
29687;DHT22;16599;47.078;15.536;2023-02-01T02:59:09;-1.30;99.90
29687;DHT22;16599;47.078;15.536;2023-02-01T03:01:55;-1.40;99.90
29687;DHT22;16599;47.078;15.536;2023-02-01T03:04:43;-1.90;99.90
29687;DHT22;16599;47.078;15.536;2023-02-01T03:12:51;-1.50;99.90
29687;DHT22;16599;47.078;15.536;2023-02-01T03:18:15;-1.40;99.90
29687;DHT22;16599;47.078;15.536;2023-02-01T03:20:47;-1.70;99.90
29687;DHT22;16599;47.078;15.536;2023-02-01T03:23:17;-1.60;99.90
29687;DHT22;16599;47.078;15.536;2023-02-01T03:25:48;-1.50;99.90
29687;DHT22;16599;47.078;15.536;2023-02-01T03:28:20;-1.50;99.90
29687;DHT22;16599;47.078;15.536;2023-02-01T03:30:49;-1.80;99.90
29687;DHT22;16599;47.078;15.536;2023-02-01T03:33:20;-1.40;99.90
29687;DHT22;16599;47.078;15.536;2023-02-01T03:36:02;-1.40;99.90
29687;DHT22;16599;47.078;15.536;2023-02-01T03:49:34;-1.20;99.90
29687;DHT22;16599;47.078;15.536;2023-02-01T03:52:02;-0.80;99.90
29687;DHT22;16599;47.078;15.536;2023-02-01T03:54:32;-0.70;99.90
29687;DHT22;16599;47.078;15.536;2023-02-01T03:57:05;-0.90;99.90
29687;DHT22;16599;47.078;15.536;2023-02-01T03:59:33;-0.90;99.90
29687;DHT22;16599;47.078;15.536;2023-02-01T04:02:00;-1.10;99.90
29687;DHT22;16599;47.078;15.536;2023-02-01T04:04:29;-1.10;99.90
29687;DHT22;16599;47.078;15.536;2023-02-01T04:07:01;-1.10;99.90
29687;DHT22;16599;47.078;15.536;2023-02-01T04:09:28;-1.20;99.90
29687;DHT22;16599;47.078;15.536;2023-02-01T04:11:55;-1.40;99.90
29687;DHT22;16599;47.078;15.536;2023-02-01T04:14:24;-0.60;99.90
29687;DHT22;16599;47.078;15.536;2023-02-01T04:16:50;-0.70;99.90
29687;DHT22;16599;47.078;15.536;2023-02-01T04:19:17;-0.70;99.90
29687;DHT22;16599;47.078;15.536;2023-02-01T04:21:44;-1.10;99.90
29687;DHT22;16599;47.078;15.536;2023-02-01T04:24:14;-1.00;99.90
29687;DHT22;16599;47.078;15.536;2023-02-01T04:26:41;-1.20;99.90
29687;DHT22;16599;47.078;15.536;2023-02-01T04:29:12;-0.70;99.90
29687;DHT22;16599;47.078;15.536;2023-02-01T04:31:39;-1.00;99.90
29687;DHT22;16599;47.078;15.536;2023-02-01T04:34:06;-1.00;99.90
29687;DHT22;16599;47.078;15.536;2023-02-01T04:36:33;-1.20;99.90
29687;DHT22;16599;47.078;15.536;2023-02-01T04:39:00;-1.20;99.90
29687;DHT22;16599;47.078;15.536;2023-02-01T04:41:27;-1.10;99.90
29687;DHT22;16599;47.078;15.536;2023-02-01T04:43:54;-0.90;99.90
29687;DHT22;16599;47.078;15.536;2023-02-01T04:46:20;-1.00;99.90
29687;DHT22;16599;47.078;15.536;2023-02-01T04:48:47;-1.20;99.90
29687;DHT22;16599;47.078;15.536;2023-02-01T04:51:14;-1.30;99.90
29687;DHT22;16599;47.078;15.536;2023-02-01T04:53:41;-1.00;99.90
29687;DHT22;16599;47.078;15.536;2023-02-01T04:56:08;-1.10;99.90
29687;DHT22;16599;47.078;15.536;2023-02-01T04:58:35;-1.20;99.90
29687;DHT22;16599;47.078;15.536;2023-02-01T05:01:03;-1.40;99.90
29687;DHT22;16599;47.078;15.536;2023-02-01T05:03:35;-1.60;99.90
29687;DHT22;16599;47.078;15.536;2023-02-01T05:06:02;-1.60;99.90
29687;DHT22;16599;47.078;15.536;2023-02-01T05:08:35;-1.50;99.90
29687;DHT22;16599;47.078;15.536;2023-02-01T05:11:04;-1.40;99.90
29687;DHT22;16599;47.078;15.536;2023-02-01T05:13:31;-1.50;99.90
29687;DHT22;16599;47.078;15.536;2023-02-01T05:16:18;-1.50;99.90
29687;DHT22;16599;47.078;15.536;2023-02-01T05:18:45;-2.00;99.90
29687;DHT22;16599;47.078;15.536;2023-02-01T05:21:14;-2.00;99.90
29687;DHT22;16599;47.078;15.536;2023-02-01T05:23:41;-2.00;99.90
29687;DHT22;16599;47.078;15.536;2023-02-01T05:26:29;-1.90;99.90
29687;DHT22;16599;47.078;15.536;2023-02-01T05:28:56;-2.10;99.90
29687;DHT22;16599;47.078;15.536;2023-02-01T05:31:24;-1.70;99.90
29687;DHT22;16599;47.078;15.536;2023-02-01T05:33:51;-1.00;99.90
29687;DHT22;16599;47.078;15.536;2023-02-01T05:36:19;-1.50;99.90
29687;DHT22;16599;47.078;15.536;2023-02-01T05:38:46;-1.70;99.90
29687;DHT22;16599;47.078;15.536;2023-02-01T05:41:15;-1.80;99.90
29687;DHT22;16599;47.078;15.536;2023-02-01T05:43:42;-1.70;99.90
29687;DHT22;16599;47.078;15.536;2023-02-01T05:46:11;-1.90;99.90
29687;DHT22;16599;47.078;15.536;2023-02-01T05:48:40;-2.10;99.90
29687;DHT22;16599;47.078;15.536;2023-02-01T05:51:07;-2.00;99.90
29687;DHT22;16599;47.078;15.536;2023-02-01T05:53:48;-1.90;99.90
29687;DHT22;16599;47.078;15.536;2023-02-01T05:56:15;-1.80;99.90
29687;DHT22;16599;47.078;15.536;2023-02-01T05:58:44;-2.10;99.90
29687;DHT22;16599;47.078;15.536;2023-02-01T06:01:10;-2.30;99.90
29687;DHT22;16599;47.078;15.536;2023-02-01T06:03:37;-1.10;99.90
29687;DHT22;16599;47.078;15.536;2023-02-01T06:06:13;-1.30;99.90
29687;DHT22;16599;47.078;15.536;2023-02-01T06:08:40;-1.60;99.90
29687;DHT22;16599;47.078;15.536;2023-02-01T06:11:06;-1.70;99.90
29687;DHT22;16599;47.078;15.536;2023-02-01T06:13:39;-1.50;99.90
29687;DHT22;16599;47.078;15.536;2023-02-01T06:16:06;-1.70;99.90
29687;DHT22;16599;47.078;15.536;2023-02-01T06:18:35;-2.00;99.90
29687;DHT22;16599;47.078;15.536;2023-02-01T06:21:02;-2.10;99.90
29687;DHT22;16599;47.078;15.536;2023-02-01T06:23:30;-0.90;99.90
29687;DHT22;16599;47.078;15.536;2023-02-01T06:26:04;-0.80;99.90
29687;DHT22;16599;47.078;15.536;2023-02-01T06:28:32;-0.80;99.90
29687;DHT22;16599;47.078;15.536;2023-02-01T06:31:06;-1.20;99.90
29687;DHT22;16599;47.078;15.536;2023-02-01T06:33:34;-1.80;99.90
29687;DHT22;16599;47.078;15.536;2023-02-01T06:36:03;-1.70;99.90
29687;DHT22;16599;47.078;15.536;2023-02-01T06:38:34;-1.80;99.90
29687;DHT22;16599;47.078;15.536;2023-02-01T06:41:02;-1.80;99.90
29687;DHT22;16599;47.078;15.536;2023-02-01T06:43:33;-1.80;99.90
29687;DHT22;16599;47.078;15.536;2023-02-01T06:46:01;-1.20;99.90
29687;DHT22;16599;47.078;15.536;2023-02-01T06:48:28;-0.90;99.90
29687;DHT22;16599;47.078;15.536;2023-02-01T06:50:56;-1.30;99.90
29687;DHT22;16599;47.078;15.536;2023-02-01T06:53:24;-1.70;99.90
29687;DHT22;16599;47.078;15.536;2023-02-01T06:56:01;-1.50;99.90
29687;DHT22;16599;47.078;15.536;2023-02-01T06:58:32;-1.30;99.90
29687;DHT22;16599;47.078;15.536;2023-02-01T07:01:07;-1.50;99.90
29687;DHT22;16599;47.078;15.536;2023-02-01T07:03:35;-1.50;99.90
29687;DHT22;16599;47.078;15.536;2023-02-01T07:06:02;-1.70;99.90
29687;DHT22;16599;47.078;15.536;2023-02-01T07:08:32;-1.70;99.90
29687;DHT22;16599;47.078;15.536;2023-02-01T07:11:12;-1.60;99.90
29687;DHT22;16599;47.078;15.536;2023-02-01T07:13:39;-1.60;99.90
29687;DHT22;16599;47.078;15.536;2023-02-01T07:16:09;-1.70;99.90
29687;DHT22;16599;47.078;15.536;2023-02-01T07:18:37;-1.60;99.90
29687;DHT22;16599;47.078;15.536;2023-02-01T07:21:06;-1.20;99.90
29687;DHT22;16599;47.078;15.536;2023-02-01T07:23:34;-1.50;99.90
29687;DHT22;16599;47.078;15.536;2023-02-01T07:26:03;-1.60;99.90
29687;DHT22;16599;47.078;15.536;2023-02-01T07:28:35;-1.30;99.90
29687;DHT22;16599;47.078;15.536;2023-02-01T07:31:07;-0.90;99.90
29687;DHT22;16599;47.078;15.536;2023-02-01T07:33:37;-1.10;99.90
29687;DHT22;16599;47.078;15.536;2023-02-01T07:36:06;-1.20;99.90
29687;DHT22;16599;47.078;15.536;2023-02-01T07:38:34;-1.00;99.90
29687;DHT22;16599;47.078;15.536;2023-02-01T07:41:04;-1.20;99.90
29687;DHT22;16599;47.078;15.536;2023-02-01T07:43:32;-1.30;99.90
29687;DHT22;16599;47.078;15.536;2023-02-01T07:46:03;-1.30;99.90
29687;DHT22;16599;47.078;15.536;2023-02-01T07:48:31;-1.20;99.90
29687;DHT22;16599;47.078;15.536;2023-02-01T07:51:08;-1.10;99.90
29687;DHT22;16599;47.078;15.536;2023-02-01T07:53:35;-1.30;99.90
29687;DHT22;16599;47.078;15.536;2023-02-01T07:56:04;-0.40;99.90
29687;DHT22;16599;47.078;15.536;2023-02-01T07:58:35;0.70;99.90
29687;DHT22;16599;47.078;15.536;2023-02-01T08:01:02;0.30;99.90
29687;DHT22;16599;47.078;15.536;2023-02-01T08:03:49;-0.20;99.90
29687;DHT22;16599;47.078;15.536;2023-02-01T08:06:16;-0.30;99.90
29687;DHT22;16599;47.078;15.536;2023-02-01T08:08:46;-0.10;99.90
29687;DHT22;16599;47.078;15.536;2023-02-01T08:11:14;0.10;99.90
29687;DHT22;16599;47.078;15.536;2023-02-01T08:13:41;0.10;99.90
29687;DHT22;16599;47.078;15.536;2023-02-01T08:16:09;0.20;99.90
29687;DHT22;16599;47.078;15.536;2023-02-01T08:18:38;0.20;99.90
29687;DHT22;16599;47.078;15.536;2023-02-01T08:21:18;0.20;99.90
29687;DHT22;16599;47.078;15.536;2023-02-01T08:23:48;0.40;99.90
29687;DHT22;16599;47.078;15.536;2023-02-01T08:26:23;0.90;99.90
29687;DHT22;16599;47.078;15.536;2023-02-01T08:28:56;2.00;99.60
29687;DHT22;16599;47.078;15.536;2023-02-01T08:31:24;1.90;99.10
29687;DHT22;16599;47.078;15.536;2023-02-01T08:33:54;1.70;99.50
29687;DHT22;16599;47.078;15.536;2023-02-01T08:36:22;2.00;99.20
29687;DHT22;16599;47.078;15.536;2023-02-01T08:38:52;2.40;99.20
29687;DHT22;16599;47.078;15.536;2023-02-01T08:41:21;2.30;98.60
29687;DHT22;16599;47.078;15.536;2023-02-01T08:44:02;2.50;98.90
29687;DHT22;16599;47.078;15.536;2023-02-01T08:46:32;2.80;99.10
29687;DHT22;16599;47.078;15.536;2023-02-01T08:48:59;3.10;98.50
29687;DHT22;16599;47.078;15.536;2023-02-01T08:51:25;3.10;98.00
29687;DHT22;16599;47.078;15.536;2023-02-01T08:53:52;3.00;98.20
29687;DHT22;16599;47.078;15.536;2023-02-01T08:56:22;3.00;97.30
29687;DHT22;16599;47.078;15.536;2023-02-01T08:58:51;3.30;97.00
29687;DHT22;16599;47.078;15.536;2023-02-01T09:01:18;3.50;96.90
29687;DHT22;16599;47.078;15.536;2023-02-01T09:03:45;3.60;95.90
29687;DHT22;16599;47.078;15.536;2023-02-01T09:06:14;3.90;95.50
29687;DHT22;16599;47.078;15.536;2023-02-01T09:08:41;3.80;96.00
29687;DHT22;16599;47.078;15.536;2023-02-01T09:11:12;4.10;94.70
29687;DHT22;16599;47.078;15.536;2023-02-01T09:13:39;4.20;94.90
29687;DHT22;16599;47.078;15.536;2023-02-01T09:16:06;4.20;95.20
29687;DHT22;16599;47.078;15.536;2023-02-01T09:18:33;4.40;94.20
29687;DHT22;16599;47.078;15.536;2023-02-01T09:21:07;4.70;94.90
29687;DHT22;16599;47.078;15.536;2023-02-01T09:23:34;4.90;93.80
29687;DHT22;16599;47.078;15.536;2023-02-01T09:26:02;5.20;94.20
29687;DHT22;16599;47.078;15.536;2023-02-01T09:28:30;5.60;92.60
29687;DHT22;16599;47.078;15.536;2023-02-01T09:30:58;5.70;95.10
29687;DHT22;16599;47.078;15.536;2023-02-01T09:33:26;5.90;93.40
29687;DHT22;16599;47.078;15.536;2023-02-01T09:36:02;6.10;93.80
29687;DHT22;16599;47.078;15.536;2023-02-01T09:38:29;6.20;91.80
29687;DHT22;16599;47.078;15.536;2023-02-01T09:40:58;6.40;91.30
29687;DHT22;16599;47.078;15.536;2023-02-01T09:43:41;6.80;90.10
29687;DHT22;16599;47.078;15.536;2023-02-01T09:46:24;6.90;88.50
29687;DHT22;16599;47.078;15.536;2023-02-01T09:48:55;6.80;89.30
29687;DHT22;16599;47.078;15.536;2023-02-01T09:51:44;6.70;90.20
29687;DHT22;16599;47.078;15.536;2023-02-01T09:54:48;6.60;91.30
29687;DHT22;16599;47.078;15.536;2023-02-01T09:57:25;6.50;91.00
29687;DHT22;16599;47.078;15.536;2023-02-01T10:00:00;6.70;90.10
29687;DHT22;16599;47.078;15.536;2023-02-01T10:02:30;6.90;90.30
29687;DHT22;16599;47.078;15.536;2023-02-01T10:04:59;7.20;88.50
29687;DHT22;16599;47.078;15.536;2023-02-01T10:07:34;7.10;86.70
29687;DHT22;16599;47.078;15.536;2023-02-01T10:13:23;7.00;88.60
29687;DHT22;16599;47.078;15.536;2023-02-01T10:19:15;7.00;90.10
29687;DHT22;16599;47.078;15.536;2023-02-01T10:21:51;7.30;88.30
29687;DHT22;16599;47.078;15.536;2023-02-01T10:27:19;7.60;86.90
29687;DHT22;16599;47.078;15.536;2023-02-01T10:29:55;7.40;84.90
29687;DHT22;16599;47.078;15.536;2023-02-01T10:32:40;7.80;83.20
29687;DHT22;16599;47.078;15.536;2023-02-01T10:35:13;8.00;84.40
29687;DHT22;16599;47.078;15.536;2023-02-01T10:37:42;8.20;81.70
29687;DHT22;16599;47.078;15.536;2023-02-01T10:40:20;8.40;78.90
29687;DHT22;16599;47.078;15.536;2023-02-01T10:42:54;8.30;75.80
29687;DHT22;16599;47.078;15.536;2023-02-01T10:45:26;8.40;74.40
29687;DHT22;16599;47.078;15.536;2023-02-01T10:47:55;8.30;74.10
29687;DHT22;16599;47.078;15.536;2023-02-01T10:53:17;8.40;74.90
29687;DHT22;16599;47.078;15.536;2023-02-01T10:55:50;8.60;72.20
29687;DHT22;16599;47.078;15.536;2023-02-01T11:05:59;9.00;75.20
29687;DHT22;16599;47.078;15.536;2023-02-01T11:08:27;9.10;74.10
29687;DHT22;16599;47.078;15.536;2023-02-01T11:11:00;9.00;71.00
29687;DHT22;16599;47.078;15.536;2023-02-01T11:13:37;8.80;72.60
29687;DHT22;16599;47.078;15.536;2023-02-01T11:16:06;8.70;72.70
29687;DHT22;16599;47.078;15.536;2023-02-01T11:18:36;8.90;71.50
29687;DHT22;16599;47.078;15.536;2023-02-01T11:21:11;8.70;69.30
29687;DHT22;16599;47.078;15.536;2023-02-01T11:23:44;8.70;71.50
29687;DHT22;16599;47.078;15.536;2023-02-01T11:26:23;9.10;74.30
29687;DHT22;16599;47.078;15.536;2023-02-01T11:29:03;8.80;71.40
29687;DHT22;16599;47.078;15.536;2023-02-01T11:31:31;9.10;71.80
29687;DHT22;16599;47.078;15.536;2023-02-01T11:34:12;9.20;69.80
29687;DHT22;16599;47.078;15.536;2023-02-01T11:36:41;9.40;68.30
29687;DHT22;16599;47.078;15.536;2023-02-01T11:39:26;9.70;68.00
29687;DHT22;16599;47.078;15.536;2023-02-01T11:42:13;9.30;68.50
29687;DHT22;16599;47.078;15.536;2023-02-01T11:44:49;9.30;69.90
29687;DHT22;16599;47.078;15.536;2023-02-01T11:49:54;9.60;67.50
29687;DHT22;16599;47.078;15.536;2023-02-01T12:01:08;9.90;67.50
29687;DHT22;16599;47.078;15.536;2023-02-01T12:06:56;10.00;67.40
29687;DHT22;16599;47.078;15.536;2023-02-01T12:17:51;10.10;61.70
29687;DHT22;16599;47.078;15.536;2023-02-01T12:23:31;10.80;60.00
29687;DHT22;16599;47.078;15.536;2023-02-01T12:32:00;10.40;58.80
29687;DHT22;16599;47.078;15.536;2023-02-01T12:34:43;10.50;57.70
29687;DHT22;16599;47.078;15.536;2023-02-01T12:37:29;10.70;57.10
29687;DHT22;16599;47.078;15.536;2023-02-01T12:40:14;11.00;56.50
29687;DHT22;16599;47.078;15.536;2023-02-01T12:43:15;10.80;55.50
29687;DHT22;16599;47.078;15.536;2023-02-01T12:45:56;10.60;53.40
29687;DHT22;16599;47.078;15.536;2023-02-01T12:48:47;10.70;54.00
29687;DHT22;16599;47.078;15.536;2023-02-01T12:51:21;10.90;55.40
29687;DHT22;16599;47.078;15.536;2023-02-01T13:04:53;10.60;52.30
29687;DHT22;16599;47.078;15.536;2023-02-01T13:07:34;10.40;52.20
29687;DHT22;16599;47.078;15.536;2023-02-01T13:10:29;10.20;53.40
29687;DHT22;16599;47.078;15.536;2023-02-01T13:15:58;9.90;53.30
29687;DHT22;16599;47.078;15.536;2023-02-01T13:18:39;10.30;55.00
29687;DHT22;16599;47.078;15.536;2023-02-01T13:21:20;10.20;54.20
29687;DHT22;16599;47.078;15.536;2023-02-01T13:23:49;9.90;53.40
29687;DHT22;16599;47.078;15.536;2023-02-01T13:26:17;9.90;54.90
29687;DHT22;16599;47.078;15.536;2023-02-01T13:29:05;9.90;55.20
29687;DHT22;16599;47.078;15.536;2023-02-01T13:32:02;9.60;54.80
29687;DHT22;16599;47.078;15.536;2023-02-01T13:37:56;9.60;56.20
29687;DHT22;16599;47.078;15.536;2023-02-01T13:40:37;9.30;55.70
29687;DHT22;16599;47.078;15.536;2023-02-01T13:45:49;9.30;56.90
29687;DHT22;16599;47.078;15.536;2023-02-01T13:48:50;9.10;58.10
29687;DHT22;16599;47.078;15.536;2023-02-01T13:51:41;9.00;58.30
29687;DHT22;16599;47.078;15.536;2023-02-01T13:54:30;9.00;58.80
29687;DHT22;16599;47.078;15.536;2023-02-01T13:56:59;9.00;61.00
29687;DHT22;16599;47.078;15.536;2023-02-01T13:59:53;9.00;61.20
29687;DHT22;16599;47.078;15.536;2023-02-01T14:11:03;8.50;63.40
29687;DHT22;16599;47.078;15.536;2023-02-01T14:13:31;8.50;64.00
29687;DHT22;16599;47.078;15.536;2023-02-01T14:24:00;8.30;63.60
29687;DHT22;16599;47.078;15.536;2023-02-01T14:29:34;8.30;64.40
29687;DHT22;16599;47.078;15.536;2023-02-01T14:32:20;8.30;63.60
29687;DHT22;16599;47.078;15.536;2023-02-01T14:39:59;7.80;66.10
29687;DHT22;16599;47.078;15.536;2023-02-01T14:50:42;7.70;67.20
29687;DHT22;16599;47.078;15.536;2023-02-01T14:55:49;7.50;65.30
29687;DHT22;16599;47.078;15.536;2023-02-01T14:58:54;7.50;65.80
29687;DHT22;16599;47.078;15.536;2023-02-01T15:04:11;7.40;65.90
29687;DHT22;16599;47.078;15.536;2023-02-01T15:06:39;7.40;65.00
29687;DHT22;16599;47.078;15.536;2023-02-01T15:09:16;7.30;65.10
29687;DHT22;16599;47.078;15.536;2023-02-01T15:14:34;7.10;66.10
29687;DHT22;16599;47.078;15.536;2023-02-01T15:17:26;7.20;65.00
29687;DHT22;16599;47.078;15.536;2023-02-01T15:19:58;7.10;67.10
29687;DHT22;16599;47.078;15.536;2023-02-01T15:22:26;7.00;65.90
29687;DHT22;16599;47.078;15.536;2023-02-01T15:25:00;6.90;67.10
29687;DHT22;16599;47.078;15.536;2023-02-01T15:27:28;7.00;67.50
29687;DHT22;16599;47.078;15.536;2023-02-01T15:30:06;6.90;67.00
29687;DHT22;16599;47.078;15.536;2023-02-01T15:32:38;6.90;66.70
29687;DHT22;16599;47.078;15.536;2023-02-01T15:35:30;6.90;67.40
29687;DHT22;16599;47.078;15.536;2023-02-01T15:37:53;6.90;66.20
29687;DHT22;16599;47.078;15.536;2023-02-01T15:41:00;6.80;67.60
29687;DHT22;16599;47.078;15.536;2023-02-01T15:43:31;6.70;68.00
29687;DHT22;16599;47.078;15.536;2023-02-01T15:46:03;6.50;68.70
29687;DHT22;16599;47.078;15.536;2023-02-01T15:48:38;6.50;68.30
29687;DHT22;16599;47.078;15.536;2023-02-01T15:51:10;6.40;69.40
29687;DHT22;16599;47.078;15.536;2023-02-01T15:53:37;6.50;69.10
29687;DHT22;16599;47.078;15.536;2023-02-01T15:56:06;6.50;67.40
29687;DHT22;16599;47.078;15.536;2023-02-01T15:58:35;6.50;69.30
29687;DHT22;16599;47.078;15.536;2023-02-01T16:01:04;6.40;70.10
29687;DHT22;16599;47.078;15.536;2023-02-01T16:03:44;6.40;68.80
29687;DHT22;16599;47.078;15.536;2023-02-01T16:06:32;6.40;67.50
29687;DHT22;16599;47.078;15.536;2023-02-01T16:09:10;6.40;69.30
29687;DHT22;16599;47.078;15.536;2023-02-01T16:11:51;6.30;68.10
29687;DHT22;16599;47.078;15.536;2023-02-01T16:14:19;6.30;67.90
29687;DHT22;16599;47.078;15.536;2023-02-01T16:16:46;6.20;68.20
29687;DHT22;16599;47.078;15.536;2023-02-01T16:19:13;6.40;66.80
29687;DHT22;16599;47.078;15.536;2023-02-01T16:21:43;6.50;66.70
29687;DHT22;16599;47.078;15.536;2023-02-01T16:24:10;6.40;67.40
29687;DHT22;16599;47.078;15.536;2023-02-01T16:26:37;6.20;68.30
29687;DHT22;16599;47.078;15.536;2023-02-01T16:29:05;6.10;68.80
29687;DHT22;16599;47.078;15.536;2023-02-01T16:31:37;6.00;69.10
29687;DHT22;16599;47.078;15.536;2023-02-01T16:34:14;6.00;69.00
29687;DHT22;16599;47.078;15.536;2023-02-01T16:36:46;6.00;68.30
29687;DHT22;16599;47.078;15.536;2023-02-01T16:39:19;6.20;68.00
29687;DHT22;16599;47.078;15.536;2023-02-01T16:41:46;6.10;67.30
29687;DHT22;16599;47.078;15.536;2023-02-01T16:44:25;6.30;66.30
29687;DHT22;16599;47.078;15.536;2023-02-01T16:46:53;6.20;66.60
29687;DHT22;16599;47.078;15.536;2023-02-01T16:49:30;6.00;68.80
29687;DHT22;16599;47.078;15.536;2023-02-01T16:51:58;6.00;68.40
29687;DHT22;16599;47.078;15.536;2023-02-01T16:54:27;6.00;68.50
29687;DHT22;16599;47.078;15.536;2023-02-01T16:56:55;6.00;69.50
29687;DHT22;16599;47.078;15.536;2023-02-01T16:59:22;6.00;69.30
29687;DHT22;16599;47.078;15.536;2023-02-01T17:01:49;5.70;71.10
29687;DHT22;16599;47.078;15.536;2023-02-01T17:04:16;5.50;72.00
29687;DHT22;16599;47.078;15.536;2023-02-01T17:06:44;5.60;71.20
29687;DHT22;16599;47.078;15.536;2023-02-01T17:09:13;5.50;72.00
29687;DHT22;16599;47.078;15.536;2023-02-01T17:11:45;5.60;71.00
29687;DHT22;16599;47.078;15.536;2023-02-01T17:14:20;5.70;70.40
29687;DHT22;16599;47.078;15.536;2023-02-01T17:16:49;5.60;71.00
29687;DHT22;16599;47.078;15.536;2023-02-01T17:19:19;5.60;71.60
29687;DHT22;16599;47.078;15.536;2023-02-01T17:21:54;5.40;72.40
29687;DHT22;16599;47.078;15.536;2023-02-01T17:24:28;5.30;73.00
29687;DHT22;16599;47.078;15.536;2023-02-01T17:27:14;5.30;72.20
29687;DHT22;16599;47.078;15.536;2023-02-01T17:29:41;5.40;71.70
29687;DHT22;16599;47.078;15.536;2023-02-01T17:32:22;5.30;72.90
29687;DHT22;16599;47.078;15.536;2023-02-01T17:34:50;5.40;71.50
29687;DHT22;16599;47.078;15.536;2023-02-01T17:37:25;5.50;71.00
29687;DHT22;16599;47.078;15.536;2023-02-01T17:39:52;5.40;71.00
29687;DHT22;16599;47.078;15.536;2023-02-01T17:42:24;5.20;72.70
29687;DHT22;16599;47.078;15.536;2023-02-01T17:44:57;5.00;74.70
29687;DHT22;16599;47.078;15.536;2023-02-01T17:47:25;4.80;75.20
29687;DHT22;16599;47.078;15.536;2023-02-01T17:49:52;4.90;75.00
29687;DHT22;16599;47.078;15.536;2023-02-01T17:52:24;4.90;74.60
29687;DHT22;16599;47.078;15.536;2023-02-01T17:54:53;5.00;74.30
29687;DHT22;16599;47.078;15.536;2023-02-01T17:57:20;4.90;74.10
29687;DHT22;16599;47.078;15.536;2023-02-01T17:59:49;5.00;74.30
29687;DHT22;16599;47.078;15.536;2023-02-01T18:02:21;4.80;74.50
29687;DHT22;16599;47.078;15.536;2023-02-01T18:04:51;4.80;74.30
29687;DHT22;16599;47.078;15.536;2023-02-01T18:07:18;4.70;75.70
29687;DHT22;16599;47.078;15.536;2023-02-01T18:09:45;4.90;74.00
29687;DHT22;16599;47.078;15.536;2023-02-01T18:12:19;4.80;75.30
29687;DHT22;16599;47.078;15.536;2023-02-01T18:14:46;4.70;75.60
29687;DHT22;16599;47.078;15.536;2023-02-01T18:17:13;4.70;75.40
29687;DHT22;16599;47.078;15.536;2023-02-01T18:19:40;4.80;75.40
29687;DHT22;16599;47.078;15.536;2023-02-01T18:22:20;4.70;75.50
29687;DHT22;16599;47.078;15.536;2023-02-01T18:24:47;4.50;76.40
29687;DHT22;16599;47.078;15.536;2023-02-01T18:27:16;4.70;75.40
29687;DHT22;16599;47.078;15.536;2023-02-01T18:29:45;4.60;76.80